Historique des mesures à Cassis (13260), France
Quotidien Résumé Janvier 3, 2018 Unités:  Métrique    US   Métrique/US
« Précédent (Jour)
Suivant (Jour) »
Quotidien Hebdomadaire Mensuel Annuel Période au choix
  Maximum: Minimum: Moyenne:
Température: TemperatureC °C 11.6 °C 14 °C
Point de rosée: DewpointC °C 5.7 °C 7.5 °C
Humidité: Humidity % 52 % 61 %
Vitesse du vent: 0 km/h 0 km/h 1.9 km/h
Rafales: 0 km/h - -
Vent:- - NW
Pression: PressurehPa hPa 1012.1 hPa -
Précipitations: 0 mm    
Historical Graphs
 
 
Mesures pour : Janvier 3, 2018
Heure Temperature Point de rosée Pression Vent Vitesse du vent Rafales Humidité Pluie (par heure)
TemperatureC °C DewpointC °C PressurehPa hPa Calm     Humidity % 0 mm
00:10 11.9 °C 5.7 °C 1016.1 hPa Calm     66 % 0 mm
01:10 12.1 °C 5.7 °C 1015.8 hPa Calm     65 % 0 mm
02:10 11.6 °C 5.7 °C 1015.8 hPa Calm     67 % 0 mm
03:10 11.6 °C 6.3 °C 1015.5 hPa Calm     70 % 0 mm
05:10 13.0 °C 8.7 °C 1014.8 hPa Calm     75 % 0 mm
06:10 13.1 °C 8.7 °C 1014.8 hPa Calm     75 % 0 mm
07:10 13.3 °C 9.3 °C 1014.8 hPa Calm     77 % 0 mm
08:10 13.4 °C 10.4 °C 1014.1 hPa Calm     82 % 0 mm
09:10 14.9 °C 11.7 °C 1013.8 hPa WNW 11.6 km/h 11.6 km/h 81 % 0 mm
12:10 18.6 °C 12.3 °C 1013.1 hPa NW 9.8 km/h 11.6 km/h 67 % 0 mm
13:10 16.9 °C 11.2 °C 1012.4 hPa WNW 8.9 km/h 8.9 km/h 69 % 0 mm
14:10 17.6 °C 8.9 °C 1012.1 hPa NNW 9.8 km/h 28.5 km/h 57 % 0 mm
16:10 16.7 °C 7.8 °C 1012.4 hPa Calm   13.2 km/h 56 % 0 mm
17:10 16.6 °C 6.7 °C 1012.4 hPa Calm     52 % 0 mm
18:10 16.1 °C 7.6 °C 1012.8 hPa Calm   19.6 km/h 57 % 0 mm
19:10 15.8 °C 7.0 °C 1013.4 hPa Calm     56 % 0 mm
20:10 15.6 °C 6.3 °C 1013.8 hPa Calm   4.7 km/h 54 % 0 mm
21:10 15.4 °C 6.1 °C 1014.4 hPa Calm     54 % 0 mm
22:10 15.2 °C 6.2 °C 1014.8 hPa Calm     55 % 0 mm
23:10 14.9 °C 5.9 °C 1014.4 hPa Calm   2.3 km/h 55 % 0 mm
Observations météo à CASSIS
WU-History script by Weather Underground - 1 mb